createdAt,value
2018-11-10T00:00:36.963Z,14.30
2018-11-10T00:03:05.076Z,16.20
2018-11-10T00:05:32.694Z,14.80
2018-11-10T00:08:00.172Z,14.93
2018-11-10T00:10:27.836Z,17.10
2018-11-10T00:12:55.318Z,15.30
2018-11-10T00:15:22.813Z,14.60
2018-11-10T00:17:50.370Z,16.33
2018-11-10T00:20:17.884Z,15.77
2018-11-10T00:22:45.306Z,18.10
2018-11-10T00:25:13.678Z,15.67
2018-11-10T00:27:42.245Z,15.27
2018-11-10T00:30:11.751Z,14.03
2018-11-10T00:32:39.283Z,19.37
2018-11-10T00:35:07.164Z,15.07
2018-11-10T00:37:34.678Z,13.47
2018-11-10T00:40:02.206Z,15.00
2018-11-10T00:42:29.784Z,20.13
2018-11-10T00:44:57.421Z,16.30
2018-11-10T00:47:24.982Z,17.77
2018-11-10T00:49:52.454Z,15.43
2018-11-10T00:52:20.063Z,21.10
2018-11-10T00:54:47.534Z,17.60
2018-11-10T00:57:15.101Z,16.00
2018-11-10T00:59:42.533Z,20.40
2018-11-10T01:02:09.999Z,17.90
2018-11-10T01:04:37.738Z,15.57
2018-11-10T01:07:05.543Z,26.10
2018-11-10T01:09:33.095Z,15.27
2018-11-10T01:12:00.614Z,16.03
2018-11-10T01:14:28.255Z,17.43
2018-11-10T01:16:55.818Z,16.93
2018-11-10T01:19:23.382Z,17.13
2018-11-10T01:21:50.994Z,17.57
2018-11-10T01:24:18.575Z,17.70
2018-11-10T01:26:46.118Z,15.57
2018-11-10T01:29:13.703Z,18.63
2018-11-10T01:31:41.195Z,16.33
2018-11-10T01:34:08.693Z,16.00
2018-11-10T01:36:36.210Z,17.83
2018-11-10T01:39:06.417Z,15.20
2018-11-10T01:41:33.916Z,17.00
2018-11-10T01:44:01.442Z,18.67
2018-11-10T01:46:29.038Z,17.80
2018-11-10T01:48:56.557Z,16.93
2018-11-10T01:51:24.066Z,17.80
2018-11-10T01:53:51.562Z,15.37
2018-11-10T01:56:18.985Z,16.63
2018-11-10T01:58:46.425Z,17.33
2018-11-10T02:01:13.865Z,16.83
2018-11-10T02:03:41.328Z,14.70
2018-11-10T02:06:08.742Z,17.70
2018-11-10T02:08:36.236Z,18.63
2018-11-10T02:11:03.793Z,17.63
2018-11-10T02:13:31.302Z,14.90
2018-11-10T02:15:58.733Z,17.23
2018-11-10T02:18:26.231Z,15.77
2018-11-10T02:20:53.653Z,15.13
2018-11-10T02:23:21.609Z,16.33
2018-11-10T02:25:49.398Z,16.23
2018-11-10T02:28:22.288Z,14.77
2018-11-10T02:30:51.056Z,15.50
2018-11-10T02:33:18.492Z,13.57
2018-11-10T02:35:46.037Z,15.67
2018-11-10T02:38:13.473Z,13.00
2018-11-10T02:40:40.917Z,11.90
2018-11-10T02:43:08.286Z,11.20
2018-11-10T02:45:35.745Z,11.60
2018-11-10T02:48:03.190Z,10.60
2018-11-10T02:50:30.562Z,10.70
2018-11-10T02:52:57.969Z,11.90
2018-11-10T02:55:25.414Z,8.93
2018-11-10T02:57:52.831Z,9.60
2018-11-10T03:00:20.341Z,10.17
2018-11-10T03:02:47.794Z,9.90
2018-11-10T03:05:15.205Z,9.20
2018-11-10T03:07:42.707Z,8.43
2018-11-10T03:10:10.995Z,8.03
2018-11-10T03:12:39.294Z,7.97
2018-11-10T03:15:07.262Z,8.07
2018-11-10T03:17:34.713Z,8.60
2018-11-10T03:20:02.197Z,9.90
2018-11-10T03:22:29.629Z,7.07
2018-11-10T03:24:57.105Z,7.33
2018-11-10T03:27:24.581Z,7.13
2018-11-10T03:29:52.010Z,6.93
2018-11-10T03:32:19.430Z,8.83
2018-11-10T03:34:46.853Z,7.00
2018-11-10T03:37:14.321Z,7.10
2018-11-10T03:39:41.849Z,7.73
2018-11-10T03:42:10.338Z,7.67
2018-11-10T03:44:37.792Z,6.47
2018-11-10T03:47:05.206Z,6.77
2018-11-10T03:49:32.629Z,6.80
2018-11-10T03:52:01.450Z,6.53
2018-11-10T03:54:28.933Z,5.60
2018-11-10T03:56:56.457Z,5.87
2018-11-10T03:59:23.929Z,5.80
2018-11-10T04:01:51.432Z,6.27
2018-11-10T04:04:18.914Z,5.30
2018-11-10T04:06:47.872Z,7.00
2018-11-10T04:09:15.352Z,6.60
2018-11-10T04:11:42.940Z,5.60
2018-11-10T04:14:10.805Z,6.40
2018-11-10T04:16:38.609Z,4.90
2018-11-10T04:19:06.233Z,4.90
2018-11-10T04:21:33.806Z,5.10
2018-11-10T04:24:01.295Z,4.87
2018-11-10T04:26:28.763Z,4.50
2018-11-10T04:28:56.529Z,4.57
2018-11-10T04:31:24.109Z,4.40
2018-11-10T04:33:51.709Z,4.67
2018-11-10T04:36:19.041Z,4.63
2018-11-10T04:38:48.137Z,4.60
2018-11-10T04:41:15.413Z,6.70
2018-11-10T04:43:42.837Z,4.80
2018-11-10T04:46:10.219Z,5.33
2018-11-10T04:48:37.543Z,4.30
2018-11-10T04:51:05.043Z,5.90
2018-11-10T04:53:32.857Z,4.60
2018-11-10T04:56:00.137Z,4.63
2018-11-10T04:58:27.521Z,4.13
2018-11-10T05:00:54.813Z,5.00
2018-11-10T05:03:22.179Z,4.77
2018-11-10T05:05:49.441Z,5.37
2018-11-10T05:08:18.215Z,3.73
2018-11-10T05:10:45.485Z,4.60
2018-11-10T05:13:12.865Z,5.60
2018-11-10T05:15:40.278Z,4.30
2018-11-10T05:18:07.563Z,4.23
2018-11-10T05:20:34.844Z,4.30
2018-11-10T05:23:03.670Z,3.83
2018-11-10T05:25:30.982Z,4.40
2018-11-10T05:27:58.230Z,4.40
2018-11-10T05:30:25.508Z,3.83
2018-11-10T05:32:52.779Z,4.53
2018-11-10T05:35:20.163Z,5.30
2018-11-10T05:37:47.646Z,5.40
2018-11-10T05:40:14.949Z,4.37
2018-11-10T05:42:42.216Z,4.33
2018-11-10T05:45:10.152Z,4.27
2018-11-10T05:47:37.510Z,4.97
2018-11-10T05:50:05.231Z,5.13
2018-11-10T05:52:32.486Z,5.90
2018-11-10T05:54:59.728Z,4.80
2018-11-10T05:57:26.970Z,4.73
2018-11-10T05:59:55.212Z,4.60
2018-11-10T06:02:22.905Z,4.53
2018-11-10T06:04:52.330Z,5.57
2018-11-10T06:07:20.014Z,4.77
2018-11-10T06:09:48.540Z,4.60
2018-11-10T06:12:15.955Z,4.47
2018-11-10T06:14:43.413Z,4.93
2018-11-10T06:17:10.949Z,4.93
2018-11-10T06:19:38.506Z,5.70
2018-11-10T06:22:06.502Z,6.47
2018-11-10T06:24:33.985Z,5.93
2018-11-10T06:27:01.459Z,5.03
2018-11-10T06:29:29.116Z,6.50
2018-11-10T06:31:56.574Z,5.47
2018-11-10T06:34:24.023Z,7.53
2018-11-10T06:36:51.569Z,6.10
2018-11-10T06:39:19.805Z,5.17
2018-11-10T06:41:47.318Z,6.27
2018-11-10T06:44:14.770Z,5.97
2018-11-10T06:46:42.278Z,7.90
2018-11-10T06:49:09.720Z,5.90
2018-11-10T06:51:40.757Z,7.27
2018-11-10T06:54:08.286Z,6.37
2018-11-10T06:56:35.853Z,6.90
2018-11-10T06:59:03.400Z,5.60
2018-11-10T07:01:30.917Z,6.70
2018-11-10T07:03:58.478Z,6.40
2018-11-10T07:06:25.958Z,6.50
2018-11-10T07:08:53.479Z,6.90
2018-11-10T07:11:23.306Z,7.00
2018-11-10T07:13:51.331Z,6.70
2018-11-10T07:16:18.894Z,6.83
2018-11-10T07:18:46.442Z,7.80
2018-11-10T07:21:13.954Z,6.33
2018-11-10T07:23:41.520Z,6.27
2018-11-10T07:26:09.031Z,6.40
2018-11-10T07:28:36.877Z,7.60
2018-11-10T07:31:04.632Z,6.70
2018-11-10T07:33:32.472Z,8.40
2018-11-10T07:36:00.070Z,8.73
2018-11-10T07:38:27.626Z,7.37
2018-11-10T07:40:55.238Z,6.63
2018-11-10T07:43:22.850Z,9.87
2018-11-10T07:45:50.487Z,8.30
2018-11-10T07:48:18.044Z,8.30
2018-11-10T07:50:45.712Z,8.13
2018-11-10T07:53:13.268Z,7.43
2018-11-10T07:55:40.844Z,9.23
2018-11-10T07:58:08.382Z,8.90
2018-11-10T08:00:36.017Z,7.90
2018-11-10T08:03:03.599Z,8.30
2018-11-10T08:05:31.176Z,7.77
2018-11-10T08:07:58.755Z,12.00
2018-11-10T08:10:26.306Z,7.73
2018-11-10T08:12:54.314Z,7.90
2018-11-10T08:15:22.050Z,7.97
2018-11-10T08:17:49.631Z,9.13
2018-11-10T08:20:17.242Z,7.73
2018-11-10T08:22:44.820Z,8.07
2018-11-10T08:25:13.691Z,6.77
2018-11-10T08:27:41.306Z,6.00
2018-11-10T08:30:10.362Z,7.10
2018-11-10T08:32:38.854Z,6.33
2018-11-10T08:35:07.259Z,8.87
2018-11-10T08:37:34.900Z,6.80
2018-11-10T08:40:03.384Z,6.97
2018-11-10T08:42:32.240Z,9.40
2018-11-10T08:44:59.780Z,8.90
2018-11-10T08:47:28.667Z,6.80
2018-11-10T08:49:56.169Z,7.10
2018-11-10T08:52:23.670Z,7.77
2018-11-10T08:54:51.221Z,6.60
2018-11-10T08:57:18.654Z,6.60
2018-11-10T08:59:46.094Z,6.07
2018-11-10T09:02:13.642Z,6.27
2018-11-10T09:04:41.098Z,5.60
2018-11-10T09:07:09.767Z,5.60
2018-11-10T09:09:37.236Z,6.67
2018-11-10T09:12:06.442Z,6.77
2018-11-10T09:14:35.397Z,5.03
2018-11-10T09:17:02.898Z,5.87
2018-11-10T09:19:30.414Z,5.70
2018-11-10T09:21:57.898Z,6.10
2018-11-10T09:24:25.360Z,5.10
2018-11-10T09:26:53.613Z,7.00
2018-11-10T09:29:21.091Z,5.50
2018-11-10T09:31:48.635Z,5.90
2018-11-10T09:34:16.189Z,5.70
2018-11-10T09:36:43.638Z,5.07
2018-11-10T09:39:11.210Z,5.13
2018-11-10T09:41:38.646Z,6.00
2018-11-10T09:44:06.120Z,5.73
2018-11-10T09:46:34.453Z,5.50
2018-11-10T09:49:05.194Z,7.50
2018-11-10T09:51:32.917Z,7.20
2018-11-10T09:54:00.494Z,5.37
2018-11-10T09:56:28.026Z,5.43
2018-11-10T09:58:55.866Z,4.80
2018-11-10T10:01:23.492Z,6.07
2018-11-10T10:03:50.834Z,5.77
2018-11-10T10:06:18.269Z,5.53
2018-11-10T10:08:45.827Z,6.23
2018-11-10T10:11:13.267Z,6.40
2018-11-10T10:13:40.737Z,5.23
2018-11-10T10:18:40.721Z,7.40
2018-11-10T10:21:08.219Z,5.90
2018-11-10T10:23:35.814Z,5.10
2018-11-10T10:26:03.337Z,4.57
2018-11-10T10:28:30.882Z,4.40
2018-11-10T10:30:58.266Z,5.43
2018-11-10T10:33:25.724Z,5.13
2018-11-10T10:35:53.229Z,4.70
2018-11-10T10:38:20.720Z,4.80
2018-11-10T10:40:48.176Z,5.00
2018-11-10T10:43:15.755Z,5.73
2018-11-10T10:45:43.295Z,5.07
2018-11-10T10:48:10.882Z,4.50
2018-11-10T10:50:38.378Z,5.27
2018-11-10T10:53:06.168Z,5.20
2018-11-10T10:55:34.045Z,5.97
2018-11-10T10:58:01.610Z,5.10
2018-11-10T11:00:35.374Z,4.93
2018-11-10T11:03:09.306Z,3.90
2018-11-10T11:05:42.564Z,6.27
2018-11-10T11:08:10.111Z,5.43
2018-11-10T11:10:37.573Z,4.57
2018-11-10T11:13:05.387Z,4.67
2018-11-10T11:15:33.050Z,4.73
2018-11-10T11:18:00.377Z,4.50
2018-11-10T11:20:28.044Z,5.37
2018-11-10T11:22:55.493Z,5.30
2018-11-10T11:25:23.121Z,5.33
2018-11-10T11:27:50.706Z,4.60
2018-11-10T11:30:18.157Z,4.70
2018-11-10T11:32:45.598Z,5.67
2018-11-10T11:35:13.597Z,4.77
2018-11-10T11:37:41.392Z,4.50
2018-11-10T11:40:10.510Z,4.90
2018-11-10T11:42:38.255Z,5.30
2018-11-10T11:45:06.650Z,6.90
2018-11-10T11:47:34.142Z,5.23
2018-11-10T11:50:01.694Z,5.70
2018-11-10T11:52:29.310Z,4.97
2018-11-10T11:54:56.846Z,6.27
2018-11-10T11:57:24.394Z,5.70
2018-11-10T11:59:51.996Z,5.00
2018-11-10T12:02:19.735Z,4.47
2018-11-10T12:04:47.266Z,5.00
2018-11-10T12:07:14.790Z,4.17
2018-11-10T12:09:42.306Z,5.10
2018-11-10T12:12:09.914Z,5.03
2018-11-10T12:14:37.713Z,6.53
2018-11-10T12:17:05.675Z,6.43
2018-11-10T12:19:33.332Z,4.83
2018-11-10T12:22:01.746Z,9.93
2018-11-10T12:24:29.449Z,5.97
2018-11-10T12:26:57.016Z,4.87
2018-11-10T12:29:24.447Z,5.17
2018-11-10T12:31:52.115Z,5.80
2018-11-10T12:34:19.600Z,5.13
2018-11-10T12:36:47.218Z,4.90
2018-11-10T12:39:14.761Z,6.30
2018-11-10T12:41:42.277Z,5.03
2018-11-10T12:44:10.086Z,4.73
2018-11-10T12:46:37.906Z,4.40
2018-11-10T12:49:05.661Z,5.60
2018-11-10T12:51:33.112Z,5.23
2018-11-10T12:54:00.555Z,5.73
2018-11-10T12:56:28.043Z,5.50
2018-11-10T12:58:55.519Z,5.80
2018-11-10T13:01:23.106Z,4.97
2018-11-10T13:03:50.624Z,5.13
2018-11-10T13:06:18.094Z,5.03
2018-11-10T13:08:45.519Z,6.10
2018-11-10T13:11:13.070Z,4.93
2018-11-10T13:13:40.448Z,4.93
2018-11-10T13:16:07.947Z,5.63
2018-11-10T13:18:35.582Z,4.93
2018-11-10T13:21:03.286Z,4.27
2018-11-10T13:23:30.887Z,4.97
2018-11-10T13:25:58.326Z,5.53
2018-11-10T13:28:25.781Z,4.93
2018-11-10T13:30:53.322Z,4.90
2018-11-10T13:33:20.722Z,5.77
2018-11-10T13:35:48.169Z,4.17
2018-11-10T13:38:15.658Z,5.70
2018-11-10T13:40:43.103Z,5.50
2018-11-10T13:43:10.716Z,4.80
2018-11-10T13:45:38.186Z,6.80
2018-11-10T13:48:05.707Z,5.13
2018-11-10T13:50:33.169Z,4.53
2018-11-10T13:53:01.078Z,5.27
2018-11-10T13:55:28.142Z,5.53
2018-11-10T13:57:55.660Z,5.70
2018-11-10T14:00:23.181Z,6.40
2018-11-10T14:02:50.805Z,4.73
2018-11-10T14:05:18.400Z,5.43
2018-11-10T14:07:45.822Z,4.70
2018-11-10T14:10:14.420Z,6.47
2018-11-10T14:12:42.837Z,5.50
2018-11-10T14:15:10.186Z,5.63
2018-11-10T14:17:37.962Z,5.30
2018-11-10T14:20:07.581Z,6.17
2018-11-10T14:22:35.410Z,5.03
2018-11-10T14:25:02.943Z,4.87
2018-11-10T14:27:30.404Z,5.50
2018-11-10T14:29:57.910Z,5.40
2018-11-10T14:32:25.361Z,5.13
2018-11-10T14:34:52.766Z,5.87
2018-11-10T14:37:20.430Z,4.60
2018-11-10T14:39:47.918Z,5.80
2018-11-10T14:42:15.393Z,4.83
2018-11-10T14:44:42.862Z,4.17
2018-11-10T14:47:10.434Z,4.90
2018-11-10T14:49:38.052Z,4.63
2018-11-10T14:52:05.584Z,4.50
2018-11-10T14:54:33.129Z,5.20
2018-11-10T14:57:00.675Z,4.83
2018-11-10T14:59:28.438Z,4.87
2018-11-10T15:01:55.946Z,4.87
2018-11-10T15:04:23.577Z,4.80
2018-11-10T15:06:51.122Z,4.80
2018-11-10T15:09:18.662Z,4.57
2018-11-10T15:11:46.207Z,5.13
2018-11-10T15:14:13.766Z,3.80
2018-11-10T15:16:41.277Z,4.60
2018-11-10T15:19:08.877Z,4.20
2018-11-10T15:21:36.375Z,5.00
2018-11-10T15:24:04.058Z,4.07
2018-11-10T15:26:31.699Z,4.50
2018-11-10T15:28:59.303Z,4.50
2018-11-10T15:31:26.835Z,3.83
2018-11-10T15:33:54.375Z,4.50
2018-11-10T15:36:22.027Z,5.93
2018-11-10T15:38:49.522Z,3.63
2018-11-10T15:41:17.119Z,4.13
2018-11-10T15:43:44.715Z,4.50
2018-11-10T15:46:12.355Z,4.73
2018-11-10T15:48:40.318Z,4.30
2018-11-10T15:51:07.825Z,4.07
2018-11-10T15:53:35.294Z,3.77
2018-11-10T15:56:02.733Z,4.00
2018-11-10T15:58:30.221Z,3.83
2018-11-10T16:00:57.725Z,3.10
2018-11-10T16:03:27.154Z,3.90
2018-11-10T16:05:54.626Z,3.53
2018-11-10T16:08:22.507Z,3.80
2018-11-10T16:10:50.043Z,3.70
2018-11-10T16:13:17.493Z,3.50
2018-11-10T16:15:44.980Z,4.70
2018-11-10T16:18:12.426Z,3.13
2018-11-10T16:20:39.822Z,3.73
2018-11-10T16:23:07.071Z,3.03
2018-11-10T16:25:36.383Z,3.20
2018-11-10T16:28:03.947Z,3.00
2018-11-10T16:30:31.250Z,3.27
2018-11-10T16:32:58.494Z,3.00
2018-11-10T16:35:25.743Z,3.20
2018-11-10T16:37:52.994Z,3.50
2018-11-10T16:40:20.589Z,4.00
2018-11-10T16:42:48.377Z,3.30
2018-11-10T16:45:18.504Z,3.20
2018-11-10T16:47:45.787Z,3.70
2018-11-10T16:50:13.083Z,3.53
2018-11-10T16:52:41.394Z,3.60
2018-11-10T16:55:08.936Z,5.20
2018-11-10T16:57:36.553Z,5.37
2018-11-10T17:00:05.501Z,4.30
2018-11-10T17:02:32.975Z,3.70
2018-11-10T17:05:01.243Z,3.70
2018-11-10T17:07:29.567Z,3.40
2018-11-10T17:09:56.907Z,3.17
2018-11-10T17:12:24.289Z,3.30
2018-11-10T17:14:51.727Z,2.73
2018-11-10T17:17:19.085Z,3.43
2018-11-10T17:19:46.400Z,2.80
2018-11-10T17:22:14.709Z,3.00
2018-11-10T17:24:42.027Z,2.33
2018-11-10T17:27:09.366Z,2.83
2018-11-10T17:29:36.707Z,3.07
2018-11-10T17:32:04.239Z,2.57
2018-11-10T17:34:31.586Z,2.60
2018-11-10T17:36:58.910Z,2.50
2018-11-10T17:39:27.421Z,2.17
2018-11-10T17:41:54.768Z,2.30
2018-11-10T17:44:22.504Z,2.63
2018-11-10T17:46:50.041Z,2.37
2018-11-10T17:49:17.389Z,2.67
2018-11-10T17:51:44.715Z,2.60
2018-11-10T17:54:12.208Z,1.97
2018-11-10T17:56:39.601Z,3.60
2018-11-10T17:59:07.426Z,2.50
2018-11-10T18:01:34.809Z,3.20
2018-11-10T18:04:02.904Z,2.23
2018-11-10T18:06:30.498Z,2.20
2018-11-10T18:08:58.078Z,2.30
2018-11-10T18:11:25.893Z,2.00
2018-11-10T18:13:53.247Z,2.50
2018-11-10T18:16:20.881Z,2.50
2018-11-10T18:18:48.245Z,2.30
2018-11-10T18:21:15.538Z,2.00
2018-11-10T18:23:42.885Z,2.30
2018-11-10T18:26:10.229Z,2.77
2018-11-10T18:28:37.598Z,2.17
2018-11-10T18:31:05.042Z,3.30
2018-11-10T18:33:32.346Z,2.30
2018-11-10T18:35:59.682Z,2.97
2018-11-10T18:38:27.005Z,2.77
2018-11-10T18:40:54.304Z,2.83
2018-11-10T18:43:21.666Z,3.00
2018-11-10T18:45:48.983Z,2.57
2018-11-10T18:48:16.290Z,2.60
2018-11-10T18:50:43.594Z,2.83
2018-11-10T18:53:10.862Z,3.00
2018-11-10T18:55:38.109Z,2.63
2018-11-10T18:58:05.424Z,2.90
2018-11-10T19:00:32.628Z,2.50
2018-11-10T19:02:59.886Z,2.40
2018-11-10T19:05:27.163Z,2.40
2018-11-10T19:07:54.427Z,2.67
2018-11-10T19:10:21.705Z,2.63
2018-11-10T19:12:48.952Z,2.80
2018-11-10T19:15:19.844Z,3.03
2018-11-10T19:17:47.073Z,3.10
2018-11-10T19:20:14.808Z,3.37
2018-11-10T19:22:42.051Z,3.10
2018-11-10T19:25:10.603Z,2.63
2018-11-10T19:27:38.254Z,3.20
2018-11-10T19:30:08.664Z,3.83
2018-11-10T19:32:35.909Z,3.97
2018-11-10T19:35:03.204Z,3.30
2018-11-10T19:37:30.518Z,4.70
2018-11-10T19:39:57.773Z,4.07
2018-11-10T19:42:25.033Z,7.17
2018-11-10T19:44:52.524Z,4.60
2018-11-10T19:47:19.814Z,4.50
2018-11-10T19:49:47.042Z,5.43
2018-11-10T19:52:14.707Z,5.00
2018-11-10T19:54:41.874Z,5.63
2018-11-10T19:57:09.287Z,6.50
2018-11-10T19:59:36.555Z,6.10
2018-11-10T20:02:04.361Z,6.10
2018-11-10T20:04:31.933Z,6.07
2018-11-10T20:06:59.540Z,5.10
2018-11-10T20:09:27.041Z,5.53
2018-11-10T20:11:54.570Z,5.67
2018-11-10T20:14:22.113Z,6.40
2018-11-10T20:16:49.633Z,5.70
2018-11-10T20:19:18.808Z,6.03
2018-11-10T20:21:49.762Z,6.70
2018-11-10T20:24:17.346Z,5.90
2018-11-10T20:26:44.897Z,7.37
2018-11-10T20:29:12.473Z,6.10
2018-11-10T20:31:40.113Z,6.50
2018-11-10T20:34:10.875Z,7.23
2018-11-10T20:36:38.368Z,9.83
2018-11-10T20:39:07.617Z,8.13
2018-11-10T20:41:35.105Z,8.43
2018-11-10T20:44:02.609Z,10.53
2018-11-10T20:46:30.530Z,8.13
2018-11-10T20:49:02.839Z,7.40
2018-11-10T20:51:30.364Z,6.50
2018-11-10T20:53:57.845Z,5.97
2018-11-10T20:56:25.406Z,6.17
2018-11-10T20:58:52.903Z,5.30
2018-11-10T21:01:20.454Z,10.80
2018-11-10T21:03:50.450Z,4.47
2018-11-10T21:06:18.058Z,4.90
2018-11-10T21:08:45.584Z,5.30
2018-11-10T21:11:13.237Z,4.33
2018-11-10T21:13:40.762Z,4.67
2018-11-10T21:16:08.376Z,5.97
2018-11-10T21:18:40.527Z,4.77
2018-11-10T21:21:08.427Z,4.23
2018-11-10T21:23:35.981Z,4.90
2018-11-10T21:26:03.541Z,4.73
2018-11-10T21:28:31.101Z,5.37
2018-11-10T21:30:58.619Z,5.33
2018-11-10T21:33:26.237Z,5.00
2018-11-10T21:35:55.480Z,4.40
2018-11-10T21:38:23.083Z,4.53
2018-11-10T21:40:50.599Z,3.80
2018-11-10T21:43:18.153Z,4.40
2018-11-10T21:45:45.674Z,5.07
2018-11-10T21:48:13.274Z,4.00
2018-11-10T21:50:43.754Z,4.73
2018-11-10T21:53:11.230Z,4.17
2018-11-10T21:55:38.672Z,6.90
2018-11-10T21:58:06.186Z,4.67
2018-11-10T22:00:33.695Z,6.10
2018-11-10T22:03:01.116Z,4.37
2018-11-10T22:05:30.021Z,5.20
2018-11-10T22:07:58.978Z,5.07
2018-11-10T22:10:26.419Z,7.07
2018-11-10T22:12:54.098Z,4.53
2018-11-10T22:15:22.429Z,5.47
2018-11-10T22:17:50.089Z,4.30
2018-11-10T22:20:22.893Z,4.73
2018-11-10T22:22:50.356Z,3.63
2018-11-10T22:25:17.829Z,3.67
2018-11-10T22:27:46.670Z,3.40
2018-11-10T22:30:15.342Z,3.53
2018-11-10T22:32:46.281Z,3.30
2018-11-10T22:35:14.898Z,2.87
2018-11-10T22:37:42.369Z,2.80
2018-11-10T22:40:11.703Z,2.70
2018-11-10T22:42:39.703Z,2.07
2018-11-10T22:45:08.691Z,2.30
2018-11-10T22:47:38.003Z,2.40
2018-11-10T22:50:07.502Z,2.77
2018-11-10T22:52:35.105Z,3.20
2018-11-10T22:55:02.562Z,2.40
2018-11-10T22:57:30.231Z,2.50
2018-11-10T22:59:57.670Z,3.03
2018-11-10T23:02:26.630Z,2.77
2018-11-10T23:04:54.094Z,2.40
2018-11-10T23:07:21.598Z,2.33
2018-11-10T23:09:49.084Z,2.47
2018-11-10T23:12:16.554Z,2.57
2018-11-10T23:14:43.990Z,3.70
2018-11-10T23:17:14.400Z,2.60
2018-11-10T23:19:41.867Z,2.47
2018-11-10T23:22:09.333Z,3.63
2018-11-10T23:24:36.920Z,2.83
2018-11-10T23:27:04.583Z,2.30
2018-11-10T23:29:32.480Z,1.97
2018-11-10T23:32:01.926Z,2.43
2018-11-10T23:34:29.452Z,2.20
2018-11-10T23:36:57.006Z,2.00
2018-11-10T23:39:24.461Z,2.10
2018-11-10T23:41:52.070Z,1.93
2018-11-10T23:44:19.590Z,1.73
2018-11-10T23:46:47.424Z,2.37
2018-11-10T23:49:14.892Z,3.43
2018-11-10T23:51:42.453Z,1.60
2018-11-10T23:54:09.995Z,2.00
2018-11-10T23:56:37.458Z,1.40
2018-11-10T23:59:05.238Z,1.50
